sensor_id;sensor_type;location;lat;lon;timestamp;pressure;altitude;pressure_sealevel;temperature;humidity
13027;BME280;6580;42.680;23.324;2023-07-13T00:00:30;95461.59;;;24.72;79.34
13027;BME280;6580;42.680;23.324;2023-07-13T00:03:17;95460.03;;;24.76;83.29
13027;BME280;6580;42.680;23.324;2023-07-13T00:06:04;95465.97;;;24.73;82.79
13027;BME280;6580;42.680;23.324;2023-07-13T00:08:50;95461.59;;;24.72;82.82
13027;BME280;6580;42.680;23.324;2023-07-13T00:11:36;95467.19;;;24.54;81.82
13027;BME280;6580;42.680;23.324;2023-07-13T00:14:23;95456.47;;;24.41;83.22
13027;BME280;6580;42.680;23.324;2023-07-13T00:17:10;95462.31;;;24.56;82.01
13027;BME280;6580;42.680;23.324;2023-07-13T00:19:56;95456.47;;;24.41;83.78
13027;BME280;6580;42.680;23.324;2023-07-13T00:22:44;95445.94;;;24.33;83.26
13027;BME280;6580;42.680;23.324;2023-07-13T00:25:31;95452.09;;;24.40;83.15
13027;BME280;6580;42.680;23.324;2023-07-13T00:28:19;95450.69;;;24.38;82.33
13027;BME280;6580;42.680;23.324;2023-07-13T00:31:05;95445.25;;;24.49;80.31
13027;BME280;6580;42.680;23.324;2023-07-13T00:33:52;95454.72;;;24.58;79.72
13027;BME280;6580;42.680;23.324;2023-07-13T00:36:39;95445.97;;;24.56;80.51
13027;BME280;6580;42.680;23.324;2023-07-13T00:39:29;95447.03;;;24.44;81.49
13027;BME280;6580;42.680;23.324;2023-07-13T00:42:17;95449.00;;;24.25;84.10
13027;BME280;6580;42.680;23.324;2023-07-13T00:45:06;95443.94;;;24.17;85.69
13027;BME280;6580;42.680;23.324;2023-07-13T00:47:53;95442.59;;;24.08;87.91
13027;BME280;6580;42.680;23.324;2023-07-13T00:50:44;95454.56;;;24.19;87.09
13027;BME280;6580;42.680;23.324;2023-07-13T00:53:33;95443.56;;;24.14;87.76
13027;BME280;6580;42.680;23.324;2023-07-13T00:56:22;95438.69;;;24.04;90.16
13027;BME280;6580;42.680;23.324;2023-07-13T00:59:09;95443.66;;;24.07;90.32
13027;BME280;6580;42.680;23.324;2023-07-13T01:02:04;95444.63;;;24.01;91.32
13027;BME280;6580;42.680;23.324;2023-07-13T01:04:49;95451.47;;;23.92;92.99
13027;BME280;6580;42.680;23.324;2023-07-13T01:07:35;95441.41;;;24.04;92.55
13027;BME280;6580;42.680;23.324;2023-07-13T01:10:25;95446.94;;;23.86;94.71
13027;BME280;6580;42.680;23.324;2023-07-13T01:13:13;95445.19;;;23.80;97.31
13027;BME280;6580;42.680;23.324;2023-07-13T01:16:03;95441.19;;;24.06;95.56
13027;BME280;6580;42.680;23.324;2023-07-13T01:18:49;95433.63;;;23.96;96.18
13027;BME280;6580;42.680;23.324;2023-07-13T01:21:37;95439.28;;;23.95;96.88
13027;BME280;6580;42.680;23.324;2023-07-13T01:24:30;95434.31;;;24.03;95.78
13027;BME280;6580;42.680;23.324;2023-07-13T01:27:21;95425.56;;;23.90;97.07
13027;BME280;6580;42.680;23.324;2023-07-13T01:30:09;95431.09;;;23.95;95.03
13027;BME280;6580;42.680;23.324;2023-07-13T01:32:55;95437.03;;;23.80;97.66
13027;BME280;6580;42.680;23.324;2023-07-13T01:35:42;95437.25;;;23.50;100.00
13027;BME280;6580;42.680;23.324;2023-07-13T01:38:30;95443.16;;;23.87;98.80
13027;BME280;6580;42.680;23.324;2023-07-13T01:41:18;95432.28;;;23.87;99.09
13027;BME280;6580;42.680;23.324;2023-07-13T01:44:04;95433.16;;;23.59;100.00
13027;BME280;6580;42.680;23.324;2023-07-13T01:46:51;95439.69;;;23.40;100.00
13027;BME280;6580;42.680;23.324;2023-07-13T01:49:37;95434.44;;;23.56;100.00
13027;BME280;6580;42.680;23.324;2023-07-13T01:52:25;95427.03;;;23.34;100.00
13027;BME280;6580;42.680;23.324;2023-07-13T01:55:12;95439.41;;;23.30;100.00
13027;BME280;6580;42.680;23.324;2023-07-13T01:57:58;95430.03;;;23.44;100.00
13027;BME280;6580;42.680;23.324;2023-07-13T02:00:43;95427.09;;;23.57;100.00
13027;BME280;6580;42.680;23.324;2023-07-13T02:03:29;95441.00;;;23.49;100.00
13027;BME280;6580;42.680;23.324;2023-07-13T02:06:15;95451.31;;;23.47;100.00
13027;BME280;6580;42.680;23.324;2023-07-13T02:09:01;95447.41;;;23.43;100.00
13027;BME280;6580;42.680;23.324;2023-07-13T02:11:51;95440.84;;;23.32;100.00
13027;BME280;6580;42.680;23.324;2023-07-13T02:14:36;95446.34;;;23.44;100.00
13027;BME280;6580;42.680;23.324;2023-07-13T02:17:28;95449.78;;;23.51;100.00
13027;BME280;6580;42.680;23.324;2023-07-13T02:20:15;95442.69;;;23.50;100.00
13027;BME280;6580;42.680;23.324;2023-07-13T02:23:05;95455.59;;;23.25;100.00
13027;BME280;6580;42.680;23.324;2023-07-13T02:25:55;95463.41;;;23.33;100.00
13027;BME280;6580;42.680;23.324;2023-07-13T02:28:42;95466.66;;;23.41;100.00
13027;BME280;6580;42.680;23.324;2023-07-13T02:31:36;95457.78;;;23.34;100.00
13027;BME280;6580;42.680;23.324;2023-07-13T02:34:22;95458.16;;;23.20;100.00
13027;BME280;6580;42.680;23.324;2023-07-13T02:37:07;95460.69;;;23.33;100.00
13027;BME280;6580;42.680;23.324;2023-07-13T02:39:53;95458.91;;;23.27;100.00
13027;BME280;6580;42.680;23.324;2023-07-13T02:42:40;95459.84;;;23.21;100.00
13027;BME280;6580;42.680;23.324;2023-07-13T02:45:28;95461.34;;;23.17;100.00
13027;BME280;6580;42.680;23.324;2023-07-13T02:48:14;95463.34;;;23.03;100.00
13027;BME280;6580;42.680;23.324;2023-07-13T02:51:00;95458.09;;;22.90;100.00
13027;BME280;6580;42.680;23.324;2023-07-13T02:53:47;95459.56;;;23.11;100.00
13027;BME280;6580;42.680;23.324;2023-07-13T02:56:32;95461.78;;;22.96;100.00
13027;BME280;6580;42.680;23.324;2023-07-13T02:59:19;95456.84;;;22.93;100.00
13027;BME280;6580;42.680;23.324;2023-07-13T03:02:10;95471.00;;;22.95;100.00
13027;BME280;6580;42.680;23.324;2023-07-13T03:04:56;95465.72;;;23.18;100.00
13027;BME280;6580;42.680;23.324;2023-07-13T03:07:42;95462.41;;;23.16;100.00
13027;BME280;6580;42.680;23.324;2023-07-13T03:10:29;95451.09;;;22.83;100.00
13027;BME280;6580;42.680;23.324;2023-07-13T03:13:15;95468.88;;;22.97;100.00
13027;BME280;6580;42.680;23.324;2023-07-13T03:16:01;95468.59;;;22.87;100.00
13027;BME280;6580;42.680;23.324;2023-07-13T03:18:48;95474.84;;;23.05;100.00
13027;BME280;6580;42.680;23.324;2023-07-13T03:21:35;95478.16;;;23.25;100.00
13027;BME280;6580;42.680;23.324;2023-07-13T03:24:21;95471.31;;;23.23;100.00
13027;BME280;6580;42.680;23.324;2023-07-13T03:27:09;95475.06;;;23.04;100.00
13027;BME280;6580;42.680;23.324;2023-07-13T03:29:55;95477.09;;;22.90;100.00
13027;BME280;6580;42.680;23.324;2023-07-13T03:32:40;95477.03;;;23.15;100.00
13027;BME280;6580;42.680;23.324;2023-07-13T03:35:28;95484.13;;;23.16;100.00
13027;BME280;6580;42.680;23.324;2023-07-13T03:38:19;95485.59;;;23.18;100.00
13027;BME280;6580;42.680;23.324;2023-07-13T03:41:06;95490.97;;;23.07;100.00
13027;BME280;6580;42.680;23.324;2023-07-13T03:43:53;95487.25;;;23.01;100.00
13027;BME280;6580;42.680;23.324;2023-07-13T03:46:42;95484.88;;;23.05;100.00
13027;BME280;6580;42.680;23.324;2023-07-13T03:49:31;95482.63;;;23.02;100.00
13027;BME280;6580;42.680;23.324;2023-07-13T03:52:19;95485.06;;;23.10;100.00
13027;BME280;6580;42.680;23.324;2023-07-13T03:55:05;95482.34;;;23.10;100.00
13027;BME280;6580;42.680;23.324;2023-07-13T03:57:58;95484.72;;;23.00;100.00
13027;BME280;6580;42.680;23.324;2023-07-13T04:00:46;95462.31;;;23.04;100.00
13027;BME280;6580;42.680;23.324;2023-07-13T04:03:33;95483.09;;;23.17;100.00
13027;BME280;6580;42.680;23.324;2023-07-13T04:06:22;95482.34;;;23.28;100.00
13027;BME280;6580;42.680;23.324;2023-07-13T04:09:13;95477.91;;;23.45;100.00
13027;BME280;6580;42.680;23.324;2023-07-13T04:12:06;95471.38;;;23.34;100.00
13027;BME280;6580;42.680;23.324;2023-07-13T04:14:56;95480.03;;;23.43;100.00
13027;BME280;6580;42.680;23.324;2023-07-13T04:17:45;95479.19;;;23.42;100.00
13027;BME280;6580;42.680;23.324;2023-07-13T04:20:33;95480.38;;;23.46;100.00
13027;BME280;6580;42.680;23.324;2023-07-13T04:23:18;95489.06;;;23.55;100.00
13027;BME280;6580;42.680;23.324;2023-07-13T04:26:06;95494.28;;;23.67;100.00
13027;BME280;6580;42.680;23.324;2023-07-13T04:28:57;95498.06;;;23.66;100.00
13027;BME280;6580;42.680;23.324;2023-07-13T04:31:44;95493.63;;;23.72;100.00
13027;BME280;6580;42.680;23.324;2023-07-13T04:34:31;95494.75;;;23.82;100.00
13027;BME280;6580;42.680;23.324;2023-07-13T04:37:20;95494.53;;;23.95;100.00
13027;BME280;6580;42.680;23.324;2023-07-13T04:40:07;95492.75;;;23.89;99.05
13027;BME280;6580;42.680;23.324;2023-07-13T04:42:59;95494.28;;;23.97;99.93
13027;BME280;6580;42.680;23.324;2023-07-13T04:45:49;95494.78;;;24.05;98.21
13027;BME280;6580;42.680;23.324;2023-07-13T04:48:35;95496.81;;;24.21;96.77
13027;BME280;6580;42.680;23.324;2023-07-13T04:51:21;95491.63;;;24.20;95.71
13027;BME280;6580;42.680;23.324;2023-07-13T04:54:07;95512.97;;;24.34;97.44
13027;BME280;6580;42.680;23.324;2023-07-13T04:56:52;95512.38;;;24.32;97.11
13027;BME280;6580;42.680;23.324;2023-07-13T04:59:39;95508.50;;;24.51;97.10
13027;BME280;6580;42.680;23.324;2023-07-13T05:02:24;95511.44;;;24.72;95.05
13027;BME280;6580;42.680;23.324;2023-07-13T05:05:11;95503.28;;;24.84;92.89
13027;BME280;6580;42.680;23.324;2023-07-13T05:07:58;95508.34;;;25.03;90.53
13027;BME280;6580;42.680;23.324;2023-07-13T05:10:43;95502.81;;;25.49;88.32
13027;BME280;6580;42.680;23.324;2023-07-13T05:13:29;95508.59;;;25.92;84.29
13027;BME280;6580;42.680;23.324;2023-07-13T05:16:16;95501.63;;;26.62;78.66
13027;BME280;6580;42.680;23.324;2023-07-13T05:19:02;95509.59;;;27.01;74.79
13027;BME280;6580;42.680;23.324;2023-07-13T05:21:50;95511.88;;;27.25;71.80
13027;BME280;6580;42.680;23.324;2023-07-13T05:24:39;95520.22;;;27.73;69.95
13027;BME280;6580;42.680;23.324;2023-07-13T05:27:25;95511.09;;;27.68;68.39
13027;BME280;6580;42.680;23.324;2023-07-13T05:30:12;95508.25;;;28.32;67.24
13027;BME280;6580;42.680;23.324;2023-07-13T05:33:05;95501.72;;;29.00;63.08
13027;BME280;6580;42.680;23.324;2023-07-13T05:35:51;95508.63;;;29.13;63.02
13027;BME280;6580;42.680;23.324;2023-07-13T05:38:36;95512.88;;;28.94;62.11
13027;BME280;6580;42.680;23.324;2023-07-13T05:41:23;95514.44;;;29.21;61.11
13027;BME280;6580;42.680;23.324;2023-07-13T05:44:11;95518.91;;;29.89;58.06
13027;BME280;6580;42.680;23.324;2023-07-13T05:46:57;95509.16;;;30.47;55.27
13027;BME280;6580;42.680;23.324;2023-07-13T05:49:44;95513.06;;;30.51;53.98
13027;BME280;6580;42.680;23.324;2023-07-13T05:52:31;95514.72;;;30.72;53.35
13027;BME280;6580;42.680;23.324;2023-07-13T05:55:16;95510.84;;;31.03;52.01
13027;BME280;6580;42.680;23.324;2023-07-13T05:58:02;95506.34;;;31.52;50.35
13027;BME280;6580;42.680;23.324;2023-07-13T06:00:48;95500.22;;;31.75;49.69
13027;BME280;6580;42.680;23.324;2023-07-13T06:03:37;95499.53;;;32.03;47.66
13027;BME280;6580;42.680;23.324;2023-07-13T06:06:24;95484.81;;;32.65;46.74
13027;BME280;6580;42.680;23.324;2023-07-13T06:09:10;95488.88;;;33.06;45.54
13027;BME280;6580;42.680;23.324;2023-07-13T06:11:56;95492.00;;;33.51;44.16
13027;BME280;6580;42.680;23.324;2023-07-13T06:14:42;95497.19;;;33.34;44.42
13027;BME280;6580;42.680;23.324;2023-07-13T06:17:28;95500.88;;;33.25;44.60
13027;BME280;6580;42.680;23.324;2023-07-13T06:20:14;95499.53;;;32.89;43.90
13027;BME280;6580;42.680;23.324;2023-07-13T06:23:06;95502.91;;;33.15;45.35
13027;BME280;6580;42.680;23.324;2023-07-13T06:25:51;95503.13;;;33.18;43.23
13027;BME280;6580;42.680;23.324;2023-07-13T06:28:37;95507.66;;;33.37;43.51
13027;BME280;6580;42.680;23.324;2023-07-13T06:31:23;95506.19;;;33.45;43.08
13027;BME280;6580;42.680;23.324;2023-07-13T06:34:10;95498.28;;;34.04;40.87
13027;BME280;6580;42.680;23.324;2023-07-13T06:36:59;95501.31;;;34.26;40.22
13027;BME280;6580;42.680;23.324;2023-07-13T06:39:46;95503.00;;;34.45;39.77
13027;BME280;6580;42.680;23.324;2023-07-13T06:42:31;95497.06;;;34.88;38.39
13027;BME280;6580;42.680;23.324;2023-07-13T06:45:17;95494.03;;;35.03;38.27
13027;BME280;6580;42.680;23.324;2023-07-13T06:48:02;95481.78;;;35.09;37.76
13027;BME280;6580;42.680;23.324;2023-07-13T06:50:49;95483.00;;;35.89;37.16
13027;BME280;6580;42.680;23.324;2023-07-13T06:53:35;95481.97;;;35.58;36.51
13027;BME280;6580;42.680;23.324;2023-07-13T06:56:27;95490.00;;;35.73;37.08
13027;BME280;6580;42.680;23.324;2023-07-13T06:59:17;95490.41;;;35.80;36.47
13027;BME280;6580;42.680;23.324;2023-07-13T07:02:03;95488.53;;;36.29;36.36
13027;BME280;6580;42.680;23.324;2023-07-13T07:04:53;95488.41;;;36.48;35.55
13027;BME280;6580;42.680;23.324;2023-07-13T07:07:39;95480.97;;;36.78;35.49
13027;BME280;6580;42.680;23.324;2023-07-13T07:10:29;95485.63;;;36.83;34.88
13027;BME280;6580;42.680;23.324;2023-07-13T07:13:21;95485.69;;;37.65;33.33
13027;BME280;6580;42.680;23.324;2023-07-13T07:16:06;95486.56;;;37.74;32.53
13027;BME280;6580;42.680;23.324;2023-07-13T07:18:53;95482.81;;;37.27;32.66
13027;BME280;6580;42.680;23.324;2023-07-13T07:21:38;95479.41;;;37.82;31.69
13027;BME280;6580;42.680;23.324;2023-07-13T07:24:26;95478.97;;;37.97;31.54
13027;BME280;6580;42.680;23.324;2023-07-13T07:27:11;95477.50;;;37.69;31.74
13027;BME280;6580;42.680;23.324;2023-07-13T07:29:59;95470.97;;;37.65;32.05
13027;BME280;6580;42.680;23.324;2023-07-13T07:32:47;95472.59;;;38.05;31.93
13027;BME280;6580;42.680;23.324;2023-07-13T07:35:33;95467.25;;;36.95;33.00
13027;BME280;6580;42.680;23.324;2023-07-13T07:38:20;95464.41;;;38.00;31.49
13027;BME280;6580;42.680;23.324;2023-07-13T07:41:05;95461.97;;;38.15;31.16
13027;BME280;6580;42.680;23.324;2023-07-13T07:43:51;95456.16;;;37.48;31.87
13027;BME280;6580;42.680;23.324;2023-07-13T07:46:41;95462.72;;;38.29;31.10
13027;BME280;6580;42.680;23.324;2023-07-13T07:49:27;95450.59;;;38.51;29.95
13027;BME280;6580;42.680;23.324;2023-07-13T07:52:14;95455.41;;;38.76;30.31
13027;BME280;6580;42.680;23.324;2023-07-13T07:55:01;95446.06;;;38.80;29.94
13027;BME280;6580;42.680;23.324;2023-07-13T07:57:46;95440.44;;;38.97;30.03
13027;BME280;6580;42.680;23.324;2023-07-13T08:00:32;95438.44;;;40.14;29.04
13027;BME280;6580;42.680;23.324;2023-07-13T08:03:22;95442.59;;;38.58;30.55
13027;BME280;6580;42.680;23.324;2023-07-13T08:06:08;95433.00;;;39.43;29.07
13027;BME280;6580;42.680;23.324;2023-07-13T08:08:54;95428.00;;;39.20;29.10
13027;BME280;6580;42.680;23.324;2023-07-13T08:11:40;95421.28;;;39.12;29.03
13027;BME280;6580;42.680;23.324;2023-07-13T08:14:28;95423.34;;;39.78;28.74
13027;BME280;6580;42.680;23.324;2023-07-13T08:17:14;95425.38;;;40.06;27.93
13027;BME280;6580;42.680;23.324;2023-07-13T08:20:01;95421.25;;;39.21;29.35
13027;BME280;6580;42.680;23.324;2023-07-13T08:22:46;95416.81;;;39.74;28.97
13027;BME280;6580;42.680;23.324;2023-07-13T08:25:32;95403.75;;;40.65;27.91
13027;BME280;6580;42.680;23.324;2023-07-13T08:28:18;95407.66;;;40.93;27.67
13027;BME280;6580;42.680;23.324;2023-07-13T08:31:05;95400.34;;;41.00;27.12
13027;BME280;6580;42.680;23.324;2023-07-13T08:33:51;95399.34;;;40.84;27.26
13027;BME280;6580;42.680;23.324;2023-07-13T08:36:38;95399.94;;;40.49;27.67
13027;BME280;6580;42.680;23.324;2023-07-13T08:39:24;95391.09;;;40.88;27.08
13027;BME280;6580;42.680;23.324;2023-07-13T08:42:26;95390.88;;;40.93;27.28
13027;BME280;6580;42.680;23.324;2023-07-13T08:45:21;95396.25;;;41.98;27.03
13027;BME280;6580;42.680;23.324;2023-07-13T08:48:13;95389.94;;;42.13;26.21
13027;BME280;6580;42.680;23.324;2023-07-13T08:51:17;95394.19;;;41.51;26.95
13027;BME280;6580;42.680;23.324;2023-07-13T08:54:17;95387.81;;;40.45;27.65
13027;BME280;6580;42.680;23.324;2023-07-13T08:57:13;95392.66;;;41.29;26.89
13027;BME280;6580;42.680;23.324;2023-07-13T08:59:59;95393.81;;;40.55;27.81
13027;BME280;6580;42.680;23.324;2023-07-13T09:02:47;95394.03;;;41.23;26.68
13027;BME280;6580;42.680;23.324;2023-07-13T09:05:38;95407.31;;;42.42;25.70
13027;BME280;6580;42.680;23.324;2023-07-13T09:08:44;95410.47;;;42.17;25.47
13027;BME280;6580;42.680;23.324;2023-07-13T09:11:52;95424.59;;;42.08;25.31
13027;BME280;6580;42.680;23.324;2023-07-13T09:14:43;95417.47;;;43.25;25.24
13027;BME280;6580;42.680;23.324;2023-07-13T09:17:35;95412.59;;;42.83;24.70
13027;BME280;6580;42.680;23.324;2023-07-13T09:20:25;95407.66;;;42.41;25.35
13027;BME280;6580;42.680;23.324;2023-07-13T09:23:15;95407.72;;;42.96;24.36
13027;BME280;6580;42.680;23.324;2023-07-13T09:26:04;95414.03;;;43.05;24.74
13027;BME280;6580;42.680;23.324;2023-07-13T09:28:55;95410.75;;;43.30;24.74
13027;BME280;6580;42.680;23.324;2023-07-13T09:31:44;95409.06;;;43.13;24.12
13027;BME280;6580;42.680;23.324;2023-07-13T09:34:32;95411.47;;;42.36;24.73
13027;BME280;6580;42.680;23.324;2023-07-13T09:37:20;95404.91;;;43.08;23.86
13027;BME280;6580;42.680;23.324;2023-07-13T09:40:24;95393.38;;;43.98;23.11
13027;BME280;6580;42.680;23.324;2023-07-13T09:43:13;95406.25;;;43.99;23.96
13027;BME280;6580;42.680;23.324;2023-07-13T09:46:02;95395.53;;;43.16;23.96
13027;BME280;6580;42.680;23.324;2023-07-13T09:48:51;95391.28;;;42.55;24.53
13027;BME280;6580;42.680;23.324;2023-07-13T09:51:37;95391.69;;;42.29;24.86
13027;BME280;6580;42.680;23.324;2023-07-13T09:54:25;95380.13;;;43.10;24.11
13027;BME280;6580;42.680;23.324;2023-07-13T09:57:13;95377.50;;;43.59;23.57
13027;BME280;6580;42.680;23.324;2023-07-13T10:00:00;95367.78;;;43.41;23.95
13027;BME280;6580;42.680;23.324;2023-07-13T10:02:58;95374.59;;;43.71;23.17
13027;BME280;6580;42.680;23.324;2023-07-13T10:05:45;95363.00;;;44.19;22.78
13027;BME280;6580;42.680;23.324;2023-07-13T10:08:31;95359.94;;;44.43;22.03
13027;BME280;6580;42.680;23.324;2023-07-13T10:11:28;95357.38;;;44.19;22.59
13027;BME280;6580;42.680;23.324;2023-07-13T10:14:20;95352.50;;;44.88;21.93
13027;BME280;6580;42.680;23.324;2023-07-13T10:17:13;95347.09;;;45.18;21.88
13027;BME280;6580;42.680;23.324;2023-07-13T10:20:02;95344.84;;;45.04;21.03
13027;BME280;6580;42.680;23.324;2023-07-13T10:22:58;95355.25;;;44.66;21.37
13027;BME280;6580;42.680;23.324;2023-07-13T10:25:46;95340.91;;;44.71;21.70
13027;BME280;6580;42.680;23.324;2023-07-13T10:28:36;95334.00;;;44.87;21.50
13027;BME280;6580;42.680;23.324;2023-07-13T10:31:24;95335.91;;;44.45;18.56
13027;BME280;6580;42.680;23.324;2023-07-13T10:34:10;95340.78;;;45.43;17.67
13027;BME280;6580;42.680;23.324;2023-07-13T10:36:58;95331.81;;;44.77;18.60
13027;BME280;6580;42.680;23.324;2023-07-13T10:39:45;95328.84;;;45.08;17.85
13027;BME280;6580;42.680;23.324;2023-07-13T10:42:35;95331.53;;;45.42;17.87
13027;BME280;6580;42.680;23.324;2023-07-13T10:45:24;95317.44;;;45.87;16.27
13027;BME280;6580;42.680;23.324;2023-07-13T10:48:13;95309.91;;;43.52;18.44
13027;BME280;6580;42.680;23.324;2023-07-13T10:51:08;95306.03;;;43.72;18.16
13027;BME280;6580;42.680;23.324;2023-07-13T10:54:16;95307.38;;;43.17;19.12
13027;BME280;6580;42.680;23.324;2023-07-13T10:57:15;95302.19;;;44.64;19.00
13027;BME280;6580;42.680;23.324;2023-07-13T11:00:16;95283.91;;;45.12;17.88
13027;BME280;6580;42.680;23.324;2023-07-13T11:03:03;95296.94;;;45.23;16.94
13027;BME280;6580;42.680;23.324;2023-07-13T11:05:50;95290.22;;;45.50;17.40
13027;BME280;6580;42.680;23.324;2023-07-13T11:08:38;95281.94;;;45.16;17.56
13027;BME280;6580;42.680;23.324;2023-07-13T11:11:36;95280.75;;;45.17;17.22
13027;BME280;6580;42.680;23.324;2023-07-13T11:14:29;95279.63;;;45.66;17.62
13027;BME280;6580;42.680;23.324;2023-07-13T11:17:33;95273.50;;;45.38;17.13
13027;BME280;6580;42.680;23.324;2023-07-13T11:20:35;95266.38;;;45.22;17.91
13027;BME280;6580;42.680;23.324;2023-07-13T11:23:42;95268.53;;;44.68;18.44
13027;BME280;6580;42.680;23.324;2023-07-13T11:26:50;95269.44;;;44.19;18.23
13027;BME280;6580;42.680;23.324;2023-07-13T11:29:38;95267.28;;;44.12;18.53
13027;BME280;6580;42.680;23.324;2023-07-13T11:32:29;95268.47;;;44.83;18.40
13027;BME280;6580;42.680;23.324;2023-07-13T11:35:22;95256.84;;;45.48;17.71
13027;BME280;6580;42.680;23.324;2023-07-13T11:38:16;95252.03;;;44.85;18.53
13027;BME280;6580;42.680;23.324;2023-07-13T11:41:04;95246.06;;;44.68;18.53
13027;BME280;6580;42.680;23.324;2023-07-13T11:43:53;95249.78;;;43.84;19.30
13027;BME280;6580;42.680;23.324;2023-07-13T11:46:46;95248.09;;;43.49;19.52
13027;BME280;6580;42.680;23.324;2023-07-13T11:49:40;95241.47;;;42.95;20.32
13027;BME280;6580;42.680;23.324;2023-07-13T11:52:35;95240.97;;;43.20;20.59
13027;BME280;6580;42.680;23.324;2023-07-13T11:55:23;95228.91;;;43.51;20.31
13027;BME280;6580;42.680;23.324;2023-07-13T11:58:10;95232.34;;;44.10;20.23
13027;BME280;6580;42.680;23.324;2023-07-13T12:01:01;95221.34;;;44.39;19.83
13027;BME280;6580;42.680;23.324;2023-07-13T12:03:49;95221.47;;;44.46;19.64
13027;BME280;6580;42.680;23.324;2023-07-13T12:06:37;95220.53;;;44.38;19.37
13027;BME280;6580;42.680;23.324;2023-07-13T12:09:28;95210.69;;;43.76;19.14
13027;BME280;6580;42.680;23.324;2023-07-13T12:12:18;95208.28;;;42.97;20.21
13027;BME280;6580;42.680;23.324;2023-07-13T12:15:06;95198.44;;;43.34;19.97
13027;BME280;6580;42.680;23.324;2023-07-13T12:17:54;95216.25;;;43.41;18.37
13027;BME280;6580;42.680;23.324;2023-07-13T12:20:40;95195.00;;;44.09;19.00
13027;BME280;6580;42.680;23.324;2023-07-13T12:23:28;95190.25;;;44.13;18.80
13027;BME280;6580;42.680;23.324;2023-07-13T12:26:15;95188.28;;;44.32;18.90
13027;BME280;6580;42.680;23.324;2023-07-13T12:29:05;95177.63;;;44.23;19.01
13027;BME280;6580;42.680;23.324;2023-07-13T12:31:51;95184.84;;;43.36;19.20
13027;BME280;6580;42.680;23.324;2023-07-13T12:34:51;95179.69;;;42.76;19.68
13027;BME280;6580;42.680;23.324;2023-07-13T12:37:37;95176.72;;;42.14;19.97
13027;BME280;6580;42.680;23.324;2023-07-13T12:40:31;95171.63;;;42.32;20.31
13027;BME280;6580;42.680;23.324;2023-07-13T12:43:21;95167.81;;;42.24;20.52
13027;BME280;6580;42.680;23.324;2023-07-13T12:46:17;95163.44;;;41.84;20.87
13027;BME280;6580;42.680;23.324;2023-07-13T12:49:05;95158.16;;;41.83;20.72
13027;BME280;6580;42.680;23.324;2023-07-13T12:51:57;95162.78;;;41.51;21.08
13027;BME280;6580;42.680;23.324;2023-07-13T12:54:53;95152.41;;;40.68;21.10
13027;BME280;6580;42.680;23.324;2023-07-13T12:57:49;95163.72;;;40.95;21.65
13027;BME280;6580;42.680;23.324;2023-07-13T13:00:38;95152.13;;;40.94;21.64
13027;BME280;6580;42.680;23.324;2023-07-13T13:03:27;95156.06;;;41.04;21.53
13027;BME280;6580;42.680;23.324;2023-07-13T13:06:24;95152.31;;;41.00;20.83
13027;BME280;6580;42.680;23.324;2023-07-13T13:09:14;95149.56;;;40.77;21.73
13027;BME280;6580;42.680;23.324;2023-07-13T13:12:00;95139.59;;;40.55;22.20
13027;BME280;6580;42.680;23.324;2023-07-13T13:14:45;95127.84;;;40.62;22.67
13027;BME280;6580;42.680;23.324;2023-07-13T13:17:32;95143.09;;;40.64;21.91
13027;BME280;6580;42.680;23.324;2023-07-13T13:20:21;95137.97;;;40.54;22.31
13027;BME280;6580;42.680;23.324;2023-07-13T13:23:10;95133.47;;;40.29;22.21
13027;BME280;6580;42.680;23.324;2023-07-13T13:25:59;95135.75;;;39.83;22.29
13027;BME280;6580;42.680;23.324;2023-07-13T13:28:45;95139.69;;;39.82;22.70
13027;BME280;6580;42.680;23.324;2023-07-13T13:31:33;95138.75;;;39.78;22.90
13027;BME280;6580;42.680;23.324;2023-07-13T13:34:21;95120.09;;;39.50;22.81
13027;BME280;6580;42.680;23.324;2023-07-13T13:37:22;95134.19;;;39.12;23.18
13027;BME280;6580;42.680;23.324;2023-07-13T13:40:17;95127.03;;;39.23;23.42
13027;BME280;6580;42.680;23.324;2023-07-13T13:43:13;95116.38;;;39.25;22.90
13027;BME280;6580;42.680;23.324;2023-07-13T13:46:01;95120.50;;;39.19;22.80
13027;BME280;6580;42.680;23.324;2023-07-13T13:48:47;95122.69;;;39.34;22.62
13027;BME280;6580;42.680;23.324;2023-07-13T13:51:34;95126.63;;;39.33;23.84
13027;BME280;6580;42.680;23.324;2023-07-13T13:54:21;95120.69;;;39.14;23.15
13027;BME280;6580;42.680;23.324;2023-07-13T13:57:08;95120.63;;;39.23;22.89
13027;BME280;6580;42.680;23.324;2023-07-13T13:59:58;95117.16;;;39.26;23.11
13027;BME280;6580;42.680;23.324;2023-07-13T14:02:46;95119.34;;;39.20;23.11
13027;BME280;6580;42.680;23.324;2023-07-13T14:05:35;95119.91;;;39.14;23.21
13027;BME280;6580;42.680;23.324;2023-07-13T14:08:22;95118.47;;;38.99;23.44
13027;BME280;6580;42.680;23.324;2023-07-13T14:11:11;95119.38;;;38.91;24.08
13027;BME280;6580;42.680;23.324;2023-07-13T14:14:02;95115.16;;;38.48;23.87
13027;BME280;6580;42.680;23.324;2023-07-13T14:16:51;95104.72;;;38.66;24.28
13027;BME280;6580;42.680;23.324;2023-07-13T14:19:38;95122.09;;;38.71;24.35
13027;BME280;6580;42.680;23.324;2023-07-13T14:22:25;95116.06;;;38.61;23.91
13027;BME280;6580;42.680;23.324;2023-07-13T14:25:16;95114.34;;;38.76;23.51
13027;BME280;6580;42.680;23.324;2023-07-13T14:28:15;95106.06;;;38.60;24.21
13027;BME280;6580;42.680;23.324;2023-07-13T14:31:04;95107.78;;;38.44;24.24
13027;BME280;6580;42.680;23.324;2023-07-13T14:33:55;95108.41;;;38.49;24.44
13027;BME280;6580;42.680;23.324;2023-07-13T14:36:42;95108.00;;;38.39;24.65
13027;BME280;6580;42.680;23.324;2023-07-13T14:39:29;95112.28;;;38.28;25.18
13027;BME280;6580;42.680;23.324;2023-07-13T14:42:15;95110.66;;;38.10;24.91
13027;BME280;6580;42.680;23.324;2023-07-13T14:45:01;95102.16;;;38.15;25.21
13027;BME280;6580;42.680;23.324;2023-07-13T14:47:47;95102.47;;;38.22;25.62
13027;BME280;6580;42.680;23.324;2023-07-13T14:50:35;95110.16;;;38.25;25.75